Sections

Recent Chat Log

Time Position Name Message
Aug 15, 2018 2:55:38 am 60  Gajwer tuh
Aug 15, 2018 12:39:10 am 60  Gajwer dobra do jutra panowie
Aug 15, 2018 12:38:24 am 60  Gajwer gracie mma ?
Aug 15, 2018 12:37:57 am 60  Gajwer poczekam do jutro
Aug 15, 2018 12:37:37 am 60  Gajwer pisze ze tranzakcja w toku czy jakos tak
Aug 15, 2018 12:37:25 am 60  Gajwer bo kupie a jutro dojdzie xd
Aug 15, 2018 12:37:20 am 60  Gajwer wiec poczkeam
Aug 15, 2018 12:37:18 am 60  Gajwer ale pisze ze idzie
Aug 15, 2018 12:37:10 am 60  Gajwer nie zabralo
Aug 15, 2018 12:37:04 am 60  Gajwer mam tak
Aug 15, 2018 12:37:03 am 60  Gajwer taky
Aug 15, 2018 12:37:00 am 60  Gajwer od jakiej idzie przelewem
Aug 15, 2018 12:36:54 am 60  Gajwer zalezy od strony
Aug 15, 2018 12:36:36 am 60  Gajwer 4 mapy temu kupilems
Aug 15, 2018 12:36:24 am 60  Gajwer no kiedy tego vipa dostane xd
Aug 15, 2018 12:35:59 am 60  Gajwer sajmon byl przy tym xd
Aug 15, 2018 12:35:55 am 60  Gajwer jakis admin dzisiaj
Aug 15, 2018 12:35:39 am 60  Gajwer powiedzieli
Aug 15, 2018 12:35:35 am 60  Gajwer dostane jutro un mute
Aug 15, 2018 12:35:30 am 59  /bhop.on pewnie gruby
Aug 15, 2018 12:34:55 am 60  Gajwer dostalem
Aug 15, 2018 12:34:53 am 60  Gajwer 2 lata temu
Aug 15, 2018 12:34:31 am 60  Gajwer dalej vipa nie mam jezu
Aug 15, 2018 12:34:25 am 60  Gajwer dalej vipa nie mam jezu
Aug 15, 2018 12:34:09 am 59  /bhop.on afk
Aug 15, 2018 12:31:39 am 2  Mackor04 fafcio pipa
Aug 15, 2018 12:31:32 am 2  Mackor04 Beke mam z ciebie
Aug 15, 2018 12:29:57 am 2  Mackor04 nim
Aug 15, 2018 12:29:51 am 59  /bhop.on bez sensu trzeba placic hajs za admina a nawet sie vipa nie ma
Aug 15, 2018 12:29:44 am 33  FaFcio12 cs-Soplica.com rtb
Aug 15, 2018 12:29:26 am 60  Gajwer ale ojebali mnie
Aug 15, 2018 12:29:22 am 60  Gajwer ja powinnem byc
Aug 15, 2018 12:29:08 am 59  /bhop.on chce ktos dac kredyty?
Aug 15, 2018 12:27:56 am 60  Gajwer boze mialem nadzieje ze sobie po skacze z gravitko a jednak nie po skacze
Aug 15, 2018 12:27:15 am 60  Gajwer wiem
Aug 15, 2018 12:27:06 am 60  Gajwer ja dostalem mute na 10 lat chyba wiec wiesz
Aug 15, 2018 12:26:22 am 60  Gajwer wskoczylem na boxa po czym weszles na mape awp i sie w celowalem
Aug 15, 2018 12:26:09 am 60  Gajwer xd
Aug 15, 2018 12:26:07 am 60  Gajwer xd
Aug 15, 2018 12:25:58 am 2  Mackor04 cze cze cze
Aug 15, 2018 12:25:54 am 33  FaFcio12 cs-Soplica.com cze cze cze
Aug 15, 2018 12:25:36 am 60  Gajwer trzeba opic mojego fake vipa
Aug 15, 2018 12:25:21 am 60  Gajwer xd
Aug 15, 2018 12:25:17 am 60  Gajwer we wtorek ?
Aug 15, 2018 12:25:09 am 60  Gajwer XD
Aug 15, 2018 12:24:42 am 60  Gajwer ktorzy pija w pracy
Aug 15, 2018 12:24:20 am 60  Gajwer xd
Aug 15, 2018 12:23:59 am 60  Gajwer free za awp i vipa
Aug 15, 2018 12:22:42 am 27  SajmoN CS.MONEY Ej admin
Aug 15, 2018 12:20:38 am 59  /bhop.on free za bh
Aug 15, 2018 12:20:31 am 60  Gajwer oddaj vipa xdd
Aug 15, 2018 12:19:46 am 60  Gajwer ...
Aug 15, 2018 12:17:30 am 60  Gajwer xd
Aug 15, 2018 12:16:50 am 60  Gajwer caly czas bez kasy
Aug 15, 2018 12:16:26 am 60  Gajwer lepiej bo zostaniesz ojebany na hajs
Aug 15, 2018 12:16:20 am 60  Gajwer nie kupuj
Aug 15, 2018 12:16:17 am 60  Gajwer wez
Aug 15, 2018 12:16:15 am 60  Gajwer scamujo
Aug 15, 2018 12:16:08 am 60  Gajwer free za awp
Aug 15, 2018 12:15:49 am 60  Gajwer speeda kupilem xd
Aug 15, 2018 12:15:23 am 60  Gajwer nie mgoe
Aug 15, 2018 12:15:13 am 60  Gajwer ja tez
Aug 15, 2018 12:14:47 am 59  /bhop.on free za bh
Aug 15, 2018 12:14:45 am 60  Gajwer jezu
Aug 15, 2018 12:13:58 am 2  Mackor04 zw momencik
Aug 15, 2018 12:13:20 am 60  Gajwer free za awp
Aug 15, 2018 12:13:14 am 60  Gajwer 5 zl zawsze cos xd
Aug 15, 2018 12:12:47 am 60  Gajwer ze beda plakac
Aug 15, 2018 12:12:42 am 60  Gajwer jak do jutra nie dojdzie to im tak maila zawale
Aug 15, 2018 12:12:32 am 2  Mackor04 Nie pierdol głupot
Aug 15, 2018 12:12:30 am 60  Gajwer ale chamy zwalcza
Aug 15, 2018 12:11:51 am 2  Mackor04 Nie pierdol głupot
Aug 15, 2018 12:10:31 am 2  Mackor04 budowa
Aug 15, 2018 12:10:13 am 60  Gajwer wez wez
Aug 15, 2018 12:09:43 am 60  Gajwer po mapie
Aug 15, 2018 12:09:20 am 60  Gajwer free za awp
Aug 15, 2018 12:08:57 am 60  Gajwer kurde kiedy ten vip przyjdzie
Aug 15, 2018 12:08:45 am 33  FaFcio12 cs-Soplica.com rtb
Aug 15, 2018 12:08:30 am 59  /bhop.on free za awp
Aug 15, 2018 12:07:47 am 60  Gajwer hentai xd
Aug 15, 2018 12:07:43 am 2  Mackor04 jestem za
Aug 15, 2018 12:07:38 am 39  Lisu CHUJ MI NA LEB
Aug 15, 2018 12:07:32 am 39  Lisu A MIALEM TO KURWA NA MATURCE
Aug 15, 2018 12:07:28 am 59  /bhop.on siema
Aug 15, 2018 12:07:04 am 60  Gajwer NAPISALEM CALE
Aug 15, 2018 12:07:01 am 60  Gajwer gmentu Lalki, całej powieści Bolesława Prusa oraz wybranego tekstu kultury. Twoja praca powinna liczyć co najmniej 250 sł
Aug 15, 2018 12:06:50 am 60  Gajwer Tęsknota – siła niszcząca czy budująca ludzkie życie? Rozważ problem i uzasadnij swoje zdanie, odwołując się do fra
Aug 15, 2018 12:06:49 am 33  FaFcio12 cs-Soplica.com budująca ludzkie zycie ponieważ coś odkrywamy cos w sobie XD
Aug 15, 2018 12:06:43 am 39  Lisu gmentu Lalki, całej powieści Bolesława Prusa oraz wybranego tekstu kultury. Twoja praca powinna liczyć co najmniej 250 sł
Aug 15, 2018 12:06:10 am 39  Lisu Tęsknota – siła niszcząca czy budująca ludzkie życie? Rozważ problem i uzasadnij swoje zdanie, odwołując się do fra
Aug 15, 2018 12:05:54 am 60  Gajwer mi daj
Aug 15, 2018 12:04:02 am 2  Mackor04 2x4do 2
Aug 15, 2018 12:03:42 am 60  Gajwer mily graczx ktory gra 2 lata xd
Aug 15, 2018 12:03:35 am 60  Gajwer ja
Aug 15, 2018 12:02:43 am 60  Gajwer a
Aug 15, 2018 12:02:41 am 60  Gajwer free bh
Aug 15, 2018 12:02:31 am 60  Gajwer a ja w cialo x
Aug 15, 2018 12:02:27 am 60  Gajwer aa
Aug 15, 2018 12:02:26 am 60  Gajwer to bylo only hs ?
Aug 15, 2018 12:02:22 am 60  Gajwer ale ty ile ty hp miales
Aug 15, 2018 12:02:15 am 60  Gajwer nie xd
Aug 15, 2018 12:01:56 am 2  Mackor04 Beke mam z ciebie
Aug 15, 2018 12:00:46 am 2  Mackor04 w dziale dr
Aug 15, 2018 12:00:42 am 2  Mackor04 no pierwsze tematy widzialem z 2014
Aug 15, 2018 12:00:10 am 60  Gajwer bo ja tu 2 lata xd\

Admin Options: